Time;durP1;ratioP1;P1;durP2;ratioP2;P2;SDS_P1;SDS_P2;PMS_P1;PMS_P2;Temp;Humidity;BMP_temperature;BMP_pressure;BME280_temperature;BME280_humidity;BME280_pressure;Samples;Min_cycle;Max_cycle;Signal;HPM_P1;HPM_P2
2023/06/05 00:01:20;;;;;;;;;;;9.80;59.90;;;;;;4104411;28;20018;-85
2023/06/05 00:03:43;;;;;;;;;;;9.90;59.80;;;;;;4116376;28;19925;-86
2023/06/05 00:06:04;;;;;;;;;;;9.80;60.10;;;;;;4103366;28;20342;-88
2023/06/05 00:08:24;;;;;;;;;;;9.90;60.50;;;;;;4113198;28;20383;-87
2023/06/05 00:10:45;;;;;;;;;;;9.80;60.60;;;;;;4104152;28;19910;-85
2023/06/05 00:13:06;;;;;;;;;;;9.70;60.50;;;;;;4115796;28;20441;-85
2023/06/05 00:15:27;;;;;;;;;;;9.60;60.80;;;;;;4104613;28;19922;-87
2023/06/05 00:17:48;;;;;;;;;;;9.70;60.80;;;;;;4117122;28;20009;-86
2023/06/05 00:20:09;;;;;;;;;;;9.60;60.70;;;;;;4102951;28;20310;-85
2023/06/05 00:22:33;;;;;;;;;;;9.60;61.00;;;;;;4115410;28;19918;-87
2023/06/05 00:24:55;;;;;;;;;;;9.60;60.90;;;;;;4118697;28;19917;-85
2023/06/05 00:27:15;;;;;;;;;;;9.50;60.90;;;;;;4119264;28;19910;-87
2023/06/05 00:29:36;;;;;;;;;;;9.50;61.00;;;;;;4105365;28;19924;-86
2023/06/05 00:31:57;;;;;;;;;;;9.50;61.00;;;;;;4099621;28;20006;-85
2023/06/05 00:34:18;;;;;;;;;;;9.50;61.00;;;;;;4119035;28;19914;-88
2023/06/05 00:36:40;;;;;;;;;;;9.50;61.00;;;;;;4105434;28;19937;-85
2023/06/05 00:39:01;;;;;;;;;;;9.40;61.00;;;;;;4113841;28;19992;-86
2023/06/05 00:41:22;;;;;;;;;;;9.40;61.20;;;;;;4122943;28;19914;-85
2023/06/05 00:43:43;;;;;;;;;;;9.40;61.30;;;;;;4108861;28;19927;-84
2023/06/05 00:46:04;;;;;;;;;;;9.40;61.70;;;;;;4131506;28;19919;-90
2023/06/05 00:48:25;;;;;;;;;;;9.40;61.60;;;;;;4132722;28;19902;-89
2023/06/05 00:50:46;;;;;;;;;;;9.30;61.40;;;;;;4118965;28;19966;-90
2023/06/05 00:53:07;;;;;;;;;;;9.40;61.60;;;;;;4129156;28;19903;-90
2023/06/05 00:55:28;;;;;;;;;;;9.40;61.80;;;;;;4117162;28;19931;-86
2023/06/05 00:57:49;;;;;;;;;;;9.30;62.00;;;;;;4116505;28;19910;-91
2023/06/05 01:00:12;;;;;;;;;;;9.30;61.90;;;;;;4104712;28;20013;-88
2023/06/05 01:02:34;;;;;;;;;;;9.20;61.90;;;;;;4094388;28;19930;-85
2023/06/05 01:04:56;;;;;;;;;;;9.20;62.00;;;;;;4096883;28;19910;-85
2023/06/05 01:07:17;;;;;;;;;;;9.20;62.30;;;;;;4101405;28;19942;-84
2023/06/05 01:09:38;;;;;;;;;;;9.20;62.20;;;;;;4112105;28;19926;-85
2023/06/05 01:12:13;;;;;;;;;;;9.20;62.20;;;;;;4101292;28;19922;-85
2023/06/05 01:14:35;;;;;;;;;;;9.20;62.10;;;;;;4109307;28;19922;-87
2023/06/05 01:17:00;;;;;;;;;;;9.20;62.80;;;;;;4102624;28;19922;-88
2023/06/05 01:19:24;;;;;;;;;;;9.10;62.50;;;;;;4095568;28;19930;-87
2023/06/05 01:21:45;;;;;;;;;;;9.20;62.70;;;;;;4113570;28;20460;-86
2023/06/05 01:24:06;;;;;;;;;;;9.20;62.70;;;;;;4117616;28;19910;-87
2023/06/05 01:26:36;;;;;;;;;;;9.10;62.70;;;;;;4118778;28;20507;-88
2023/06/05 01:28:58;;;;;;;;;;;9.00;62.80;;;;;;4105665;28;19938;-88
2023/06/05 01:31:20;;;;;;;;;;;9.00;62.80;;;;;;4119503;28;19918;-87
2023/06/05 01:33:49;;;;;;;;;;;9.00;62.70;;;;;;4105823;28;19918;-90
2023/06/05 01:36:11;;;;;;;;;;;9.00;62.50;;;;;;4130774;28;19950;-88
2023/06/05 01:38:35;;;;;;;;;;;9.00;62.70;;;;;;4113348;28;20030;-85
2023/06/05 01:40:56;;;;;;;;;;;8.90;63.10;;;;;;4100163;28;19918;-85
2023/06/05 01:43:18;;;;;;;;;;;8.90;63.10;;;;;;4098960;28;19938;-88
2023/06/05 01:45:40;;;;;;;;;;;9.00;63.10;;;;;;4113033;28;19921;-84
2023/06/05 01:48:02;;;;;;;;;;;8.90;63.00;;;;;;4112367;28;19990;-85
2023/06/05 01:50:23;;;;;;;;;;;9.00;63.00;;;;;;4098235;28;20238;-86
2023/06/05 01:52:47;;;;;;;;;;;8.90;62.50;;;;;;4109126;28;19925;-86
2023/06/05 01:55:14;;;;;;;;;;;8.80;62.50;;;;;;4092374;28;19918;-87
2023/06/05 01:57:36;;;;;;;;;;;8.80;62.90;;;;;;4106329;28;19922;-85
2023/06/05 01:59:57;;;;;;;;;;;8.80;62.80;;;;;;4108703;28;19972;-85
2023/06/05 02:02:18;;;;;;;;;;;8.80;62.60;;;;;;4112143;28;20294;-86
2023/06/05 02:04:39;;;;;;;;;;;8.80;62.80;;;;;;4095906;28;19914;-85
2023/06/05 02:07:03;;;;;;;;;;;8.80;63.00;;;;;;4100018;28;19922;-87
2023/06/05 02:09:24;;;;;;;;;;;8.80;63.20;;;;;;4098263;28;20027;-85
2023/06/05 02:11:46;;;;;;;;;;;8.70;63.20;;;;;;4099585;28;19957;-85
2023/06/05 02:14:07;;;;;;;;;;;8.80;63.30;;;;;;4094108;28;19923;-86
2023/06/05 02:16:28;;;;;;;;;;;8.70;63.10;;;;;;4093449;28;20394;-86
2023/06/05 02:18:49;;;;;;;;;;;8.70;63.20;;;;;;4096140;28;19926;-86
2023/06/05 02:21:13;;;;;;;;;;;8.60;63.10;;;;;;4098720;28;20473;-85
2023/06/05 02:23:34;;;;;;;;;;;8.60;63.20;;;;;;4097914;28;19949;-89
2023/06/05 02:25:56;;;;;;;;;;;8.60;63.10;;;;;;4107305;28;19922;-84
2023/06/05 02:28:19;;;;;;;;;;;8.60;63.20;;;;;;4094178;28;19914;-85
2023/06/05 02:30:44;;;;;;;;;;;8.50;63.00;;;;;;4110055;28;20317;-85
2023/06/05 02:33:05;;;;;;;;;;;8.50;63.00;;;;;;4108505;28;19915;-84
2023/06/05 02:35:26;;;;;;;;;;;8.50;63.40;;;;;;4099829;28;19918;-85
2023/06/05 02:37:47;;;;;;;;;;;8.50;63.50;;;;;;4104643;28;19926;-86
2023/06/05 02:40:11;;;;;;;;;;;8.50;63.70;;;;;;4112496;28;19910;-88
2023/06/05 02:42:32;;;;;;;;;;;8.40;63.70;;;;;;4101526;28;19918;-84
2023/06/05 02:44:53;;;;;;;;;;;8.40;63.80;;;;;;4108391;28;19922;-86
2023/06/05 02:47:14;;;;;;;;;;;8.40;63.70;;;;;;4099763;28;19923;-84
2023/06/05 02:49:35;;;;;;;;;;;8.40;63.60;;;;;;4098261;28;19915;-89
2023/06/05 02:51:56;;;;;;;;;;;8.30;63.70;;;;;;4101890;28;19914;-88
2023/06/05 02:54:17;;;;;;;;;;;8.30;64.10;;;;;;4114759;28;19929;-84
2023/06/05 02:56:38;;;;;;;;;;;8.20;63.90;;;;;;4110779;28;19977;-86
2023/06/05 02:59:02;;;;;;;;;;;8.30;63.80;;;;;;4097416;28;20018;-87
2023/06/05 03:01:25;;;;;;;;;;;8.20;63.70;;;;;;4102931;28;19994;-86
2023/06/05 03:03:48;;;;;;;;;;;8.20;63.80;;;;;;4109777;28;19914;-86
2023/06/05 03:06:09;;;;;;;;;;;8.20;63.80;;;;;;4109730;28;19914;-88
2023/06/05 03:08:33;;;;;;;;;;;8.20;63.80;;;;;;4111207;28;19914;-87
2023/06/05 03:10:54;;;;;;;;;;;8.20;63.80;;;;;;4110005;28;19957;-86
2023/06/05 03:13:14;;;;;;;;;;;8.10;64.10;;;;;;4101136;28;20224;-86
2023/06/05 03:15:35;;;;;;;;;;;8.20;64.20;;;;;;4112979;28;20303;-86
2023/06/05 03:17:56;;;;;;;;;;;8.10;64.30;;;;;;4101877;28;19915;-87
2023/06/05 03:20:18;;;;;;;;;;;8.10;64.20;;;;;;4103113;28;20524;-88
2023/06/05 03:22:39;;;;;;;;;;;8.10;64.10;;;;;;4101087;28;19914;-86
2023/06/05 03:24:59;;;;;;;;;;;8.10;64.00;;;;;;4114048;28;19926;-86
2023/06/05 03:27:20;;;;;;;;;;;8.10;63.90;;;;;;4108583;28;19974;-84
2023/06/05 03:29:41;;;;;;;;;;;8.10;63.60;;;;;;4097051;28;19918;-85
2023/06/05 03:32:02;;;;;;;;;;;8.10;63.50;;;;;;4104721;28;19925;-87
2023/06/05 03:34:25;;;;;;;;;;;8.10;64.30;;;;;;4113259;28;19925;-85
2023/06/05 03:36:48;;;;;;;;;;;8.10;63.40;;;;;;4116036;28;19923;-86
2023/06/05 03:39:09;;;;;;;;;;;8.10;63.60;;;;;;4112454;28;19927;-86
2023/06/05 03:41:30;;;;;;;;;;;8.10;63.60;;;;;;4112050;28;20294;-86
2023/06/05 03:43:51;;;;;;;;;;;8.10;63.90;;;;;;4116499;28;19914;-87
2023/06/05 03:46:18;;;;;;;;;;;8.10;64.00;;;;;;4110838;28;19918;-89
2023/06/05 03:48:39;;;;;;;;;;;8.10;64.10;;;;;;4111018;28;19967;-85
2023/06/05 03:51:00;;;;;;;;;;;8.10;64.50;;;;;;4109046;28;20308;-86
2023/06/05 03:53:22;;;;;;;;;;;8.10;64.80;;;;;;4111771;28;19914;-86
2023/06/05 03:55:46;;;;;;;;;;;8.20;65.10;;;;;;4113802;28;19936;-87
2023/06/05 03:58:13;;;;;;;;;;;8.30;65.70;;;;;;4113006;28;20397;-87
2023/06/05 04:00:34;;;;;;;;;;;8.30;66.00;;;;;;4109850;28;20018;-86
2023/06/05 04:02:56;;;;;;;;;;;8.40;66.30;;;;;;4112388;28;19949;-85
2023/06/05 04:05:17;;;;;;;;;;;8.50;66.50;;;;;;4102793;28;19918;-87
2023/06/05 04:07:38;;;;;;;;;;;8.60;66.80;;;;;;4110875;28;19918;-88
2023/06/05 04:09:59;;;;;;;;;;;8.60;67.10;;;;;;4113261;28;19914;-84
2023/06/05 04:12:20;;;;;;;;;;;8.70;67.40;;;;;;4099028;28;19925;-86
2023/06/05 04:14:41;;;;;;;;;;;8.90;67.80;;;;;;4111201;28;19914;-85
2023/06/05 04:17:02;;;;;;;;;;;9.00;68.30;;;;;;4115956;28;19961;-87
2023/06/05 04:19:23;;;;;;;;;;;9.10;68.70;;;;;;4116220;28;19945;-85
2023/06/05 04:21:44;;;;;;;;;;;9.20;68.80;;;;;;4115153;28;19922;-86
2023/06/05 04:24:07;;;;;;;;;;;9.30;68.90;;;;;;4107684;28;20263;-86
2023/06/05 04:26:28;;;;;;;;;;;9.40;68.90;;;;;;4115945;28;19918;-87
2023/06/05 04:28:50;;;;;;;;;;;9.50;69.20;;;;;;4116227;28;19922;-87
2023/06/05 04:31:11;;;;;;;;;;;9.70;69.70;;;;;;4115144;28;19922;-86
2023/06/05 04:33:32;;;;;;;;;;;9.80;69.70;;;;;;4110371;28;20042;-89
2023/06/05 04:35:53;;;;;;;;;;;9.80;69.60;;;;;;4113062;28;19918;-88
2023/06/05 04:38:14;;;;;;;;;;;9.90;70.00;;;;;;4113315;28;19930;-86
2023/06/05 04:40:34;;;;;;;;;;;10.10;70.30;;;;;;4110855;28;19918;-87
2023/06/05 04:42:56;;;;;;;;;;;10.20;70.80;;;;;;4102550;28;20402;-85
2023/06/05 04:45:17;;;;;;;;;;;10.30;71.20;;;;;;4112251;28;19929;-85
2023/06/05 04:47:38;;;;;;;;;;;10.40;70.80;;;;;;4103403;28;20271;-90
2023/06/05 04:50:00;;;;;;;;;;;10.50;70.70;;;;;;4126590;28;19961;-89
2023/06/05 04:52:21;;;;;;;;;;;10.50;69.90;;;;;;4115498;28;19930;-87
2023/06/05 04:54:42;;;;;;;;;;;10.60;69.70;;;;;;4098947;28;19914;-87
2023/06/05 04:57:05;;;;;;;;;;;10.70;69.60;;;;;;4116719;28;19918;-88
2023/06/05 04:59:27;;;;;;;;;;;10.70;68.80;;;;;;4112665;28;19925;-86
2023/06/05 05:01:49;;;;;;;;;;;10.80;68.90;;;;;;4112337;28;19929;-86
2023/06/05 05:04:11;;;;;;;;;;;10.80;68.60;;;;;;4113366;28;19918;-86
2023/06/05 05:06:33;;;;;;;;;;;10.80;69.10;;;;;;4116465;28;19914;-87
2023/06/05 05:08:54;;;;;;;;;;;10.90;69.20;;;;;;4099268;28;21094;-88
2023/06/05 05:11:15;;;;;;;;;;;11.00;68.80;;;;;;4113845;28;19933;-86
2023/06/05 05:13:36;;;;;;;;;;;11.00;68.70;;;;;;4114181;28;20326;-87
2023/06/05 05:15:56;;;;;;;;;;;11.00;68.00;;;;;;4111965;28;19930;-86
2023/06/05 05:18:17;;;;;;;;;;;11.10;68.00;;;;;;4110295;28;19914;-85
2023/06/05 05:20:39;;;;;;;;;;;11.00;67.50;;;;;;4108817;28;19990;-88
2023/06/05 05:23:00;;;;;;;;;;;11.10;68.00;;;;;;4099729;28;20150;-84
2023/06/05 05:25:21;;;;;;;;;;;11.20;67.50;;;;;;4113484;28;19928;-87
2023/06/05 05:27:42;;;;;;;;;;;11.20;67.70;;;;;;4095497;28;20722;-85
2023/06/05 05:30:02;;;;;;;;;;;11.30;67.60;;;;;;4111061;28;19922;-86
2023/06/05 05:32:23;;;;;;;;;;;11.30;67.50;;;;;;4114701;28;19922;-85
2023/06/05 05:34:44;;;;;;;;;;;11.40;67.50;;;;;;4113329;28;20001;-85
2023/06/05 05:37:05;;;;;;;;;;;11.40;67.50;;;;;;4110238;28;19969;-88
2023/06/05 05:39:26;;;;;;;;;;;11.40;67.00;;;;;;4096421;28;19989;-86
2023/06/05 05:41:46;;;;;;;;;;;11.50;67.10;;;;;;4108991;28;20146;-85
2023/06/05 05:44:07;;;;;;;;;;;11.50;67.00;;;;;;4109109;28;19918;-85
2023/06/05 05:46:28;;;;;;;;;;;11.60;67.10;;;;;;4107511;28;19915;-86
2023/06/05 05:48:49;;;;;;;;;;;11.60;66.90;;;;;;4109428;28;19922;-86
2023/06/05 05:51:10;;;;;;;;;;;11.70;67.20;;;;;;4111627;28;19917;-88
2023/06/05 05:53:31;;;;;;;;;;;11.70;66.90;;;;;;4111803;28;19922;-87
2023/06/05 05:55:53;;;;;;;;;;;11.80;67.10;;;;;;4096070;28;19926;-87
2023/06/05 05:58:15;;;;;;;;;;;11.80;66.70;;;;;;4091931;28;20397;-84
2023/06/05 06:00:35;;;;;;;;;;;11.90;67.00;;;;;;4109915;28;19958;-87
2023/06/05 06:02:56;;;;;;;;;;;12.00;67.50;;;;;;4097918;28;19985;-86
2023/06/05 06:05:18;;;;;;;;;;;12.00;67.40;;;;;;4108476;28;19914;-85
2023/06/05 06:07:42;;;;;;;;;;;12.00;67.00;;;;;;4109079;28;20279;-85
2023/06/05 06:10:03;;;;;;;;;;;12.10;66.90;;;;;;4109788;28;20156;-85
2023/06/05 06:12:24;;;;;;;;;;;12.20;67.20;;;;;;4110241;28;20247;-85
2023/06/05 06:14:47;;;;;;;;;;;12.30;67.70;;;;;;4110536;28;19918;-87
2023/06/05 06:17:10;;;;;;;;;;;12.50;67.70;;;;;;4097208;28;19926;-86
2023/06/05 06:19:32;;;;;;;;;;;12.50;67.70;;;;;;4109163;28;19914;-84
2023/06/05 06:21:53;;;;;;;;;;;12.50;67.00;;;;;;4110712;28;19981;-87
2023/06/05 06:24:15;;;;;;;;;;;12.60;66.80;;;;;;4109754;28;20382;-87
2023/06/05 06:26:38;;;;;;;;;;;12.70;66.60;;;;;;4110621;28;19922;-86
2023/06/05 06:28:59;;;;;;;;;;;12.80;66.60;;;;;;4107661;28;19925;-85
2023/06/05 06:31:20;;;;;;;;;;;12.90;66.70;;;;;;4095049;28;20427;-84
2023/06/05 06:33:41;;;;;;;;;;;12.90;66.90;;;;;;4101760;28;19919;-86
2023/06/05 06:36:02;;;;;;;;;;;13.00;66.50;;;;;;4119686;28;19936;-85
2023/06/05 06:38:27;;;;;;;;;;;13.10;66.50;;;;;;4111592;28;19926;-87
2023/06/05 06:40:48;;;;;;;;;;;13.20;66.40;;;;;;4096372;28;19923;-85
2023/06/05 06:43:08;;;;;;;;;;;13.40;66.70;;;;;;4107929;28;19922;-86
2023/06/05 06:45:29;;;;;;;;;;;13.40;66.40;;;;;;4110917;28;20333;-86
2023/06/05 06:47:50;;;;;;;;;;;13.50;66.10;;;;;;4117675;28;19929;-88
2023/06/05 06:50:12;;;;;;;;;;;13.60;66.30;;;;;;4099126;28;19925;-87
2023/06/05 06:52:33;;;;;;;;;;;13.60;65.30;;;;;;4109949;28;19922;-87
2023/06/05 06:54:53;;;;;;;;;;;13.70;65.10;;;;;;4100051;28;19918;-86
2023/06/05 06:57:14;;;;;;;;;;;13.80;65.00;;;;;;4113622;28;19922;-86
2023/06/05 06:59:35;;;;;;;;;;;13.80;65.10;;;;;;4099342;28;19914;-86
2023/06/05 07:02:13;;;;;;;;;;;13.90;64.60;;;;;;4111936;28;19922;-86
2023/06/05 07:04:34;;;;;;;;;;;13.90;64.40;;;;;;4111672;28;19965;-87
2023/06/05 07:06:55;;;;;;;;;;;14.10;64.40;;;;;;4118693;28;19918;-86
2023/06/05 07:09:16;;;;;;;;;;;14.10;64.30;;;;;;4100416;28;19939;-88
2023/06/05 07:11:37;;;;;;;;;;;14.20;64.30;;;;;;4112306;28;19914;-87
2023/06/05 07:13:57;;;;;;;;;;;14.30;64.40;;;;;;4100328;28;20001;-86
2023/06/05 07:16:18;;;;;;;;;;;14.40;64.40;;;;;;4099681;28;20013;-85
2023/06/05 07:18:40;;;;;;;;;;;14.50;64.30;;;;;;4103276;28;19994;-86
2023/06/05 07:21:01;;;;;;;;;;;14.50;63.90;;;;;;4117819;28;20531;-86
2023/06/05 07:23:22;;;;;;;;;;;14.60;63.80;;;;;;4103123;28;20387;-87
2023/06/05 07:25:43;;;;;;;;;;;14.60;63.30;;;;;;4106782;28;19919;-87
2023/06/05 07:28:08;;;;;;;;;;;14.70;63.20;;;;;;4103498;28;19973;-88
2023/06/05 07:30:29;;;;;;;;;;;14.80;63.20;;;;;;4102150;28;19922;-86
2023/06/05 07:32:50;;;;;;;;;;;14.90;63.10;;;;;;4102256;28;19918;-87
2023/06/05 07:35:12;;;;;;;;;;;14.90;62.80;;;;;;4117063;28;19918;-87
2023/06/05 07:37:33;;;;;;;;;;;15.00;62.70;;;;;;4102681;28;19918;-87
2023/06/05 07:39:54;;;;;;;;;;;15.00;62.50;;;;;;4113400;28;19928;-88
2023/06/05 07:42:15;;;;;;;;;;;15.20;62.40;;;;;;4115322;28;19918;-86
2023/06/05 07:44:36;;;;;;;;;;;15.20;62.40;;;;;;4103426;28;19911;-87
2023/06/05 07:46:57;;;;;;;;;;;15.20;62.20;;;;;;4112887;28;19974;-87
2023/06/05 07:49:18;;;;;;;;;;;15.30;62.00;;;;;;4103123;28;19919;-86
2023/06/05 07:51:39;;;;;;;;;;;15.30;61.90;;;;;;4113632;28;19926;-86
2023/06/05 07:54:00;;;;;;;;;;;15.40;61.80;;;;;;4097432;28;19974;-86
2023/06/05 07:56:23;;;;;;;;;;;15.50;61.80;;;;;;4102759;28;19925;-86
2023/06/05 07:58:44;;;;;;;;;;;15.60;61.90;;;;;;4108169;28;19929;-87
2023/06/05 08:01:07;;;;;;;;;;;15.60;61.60;;;;;;4110081;28;19922;-86
2023/06/05 08:03:27;;;;;;;;;;;15.70;61.40;;;;;;4097396;28;19918;-86
2023/06/05 08:05:49;;;;;;;;;;;15.80;61.30;;;;;;4115613;28;19914;-85
2023/06/05 08:08:09;;;;;;;;;;;15.70;61.10;;;;;;4107418;28;19954;-87
2023/06/05 08:10:30;;;;;;;;;;;15.90;61.20;;;;;;4108394;28;19918;-88
2023/06/05 08:12:52;;;;;;;;;;;15.90;61.00;;;;;;4102343;28;19918;-86
2023/06/05 08:15:13;;;;;;;;;;;15.90;60.30;;;;;;4098698;28;19926;-85
2023/06/05 08:17:33;;;;;;;;;;;16.00;60.40;;;;;;4102725;28;20665;-87
2023/06/05 08:19:54;;;;;;;;;;;16.10;60.10;;;;;;4103257;28;19923;-86
2023/06/05 08:22:15;;;;;;;;;;;16.10;60.10;;;;;;4114944;28;20504;-87
2023/06/05 08:24:37;;;;;;;;;;;16.20;60.40;;;;;;4110767;28;19915;-86
2023/06/05 08:26:59;;;;;;;;;;;16.20;60.40;;;;;;4119440;28;19965;-88
2023/06/05 08:29:20;;;;;;;;;;;16.30;60.20;;;;;;4104751;28;19914;-88
2023/06/05 08:31:41;;;;;;;;;;;16.40;60.00;;;;;;4109819;28;19969;-87
2023/06/05 08:34:02;;;;;;;;;;;16.40;60.00;;;;;;4119901;28;19914;-88
2023/06/05 08:36:24;;;;;;;;;;;16.50;58.90;;;;;;4114341;28;19922;-88
2023/06/05 08:38:44;;;;;;;;;;;16.50;58.80;;;;;;4113499;28;19925;-88
2023/06/05 08:41:10;;;;;;;;;;;16.60;59.00;;;;;;4116328;28;19926;-86
2023/06/05 08:43:31;;;;;;;;;;;16.60;59.10;;;;;;4123735;28;19950;-87
2023/06/05 08:45:53;;;;;;;;;;;16.70;59.30;;;;;;4117674;28;19985;-87
2023/06/05 08:48:17;;;;;;;;;;;16.80;59.00;;;;;;4112927;28;20389;-86
2023/06/05 08:50:38;;;;;;;;;;;16.80;58.90;;;;;;4114386;28;19922;-88
2023/06/05 08:53:00;;;;;;;;;;;16.90;59.00;;;;;;4100132;28;19918;-87
2023/06/05 08:55:21;;;;;;;;;;;16.90;58.80;;;;;;4100648;28;20013;-87
2023/06/05 08:57:42;;;;;;;;;;;17.00;58.90;;;;;;4109903;28;20163;-88
2023/06/05 09:00:10;;;;;;;;;;;17.10;59.00;;;;;;4109895;28;20409;-88
2023/06/05 09:02:30;;;;;;;;;;;17.10;58.80;;;;;;4107431;28;19929;-87
2023/06/05 09:04:51;;;;;;;;;;;17.20;58.60;;;;;;4104515;28;19915;-87
2023/06/05 09:07:12;;;;;;;;;;;17.30;58.50;;;;;;4101002;28;19914;-87
2023/06/05 09:09:33;;;;;;;;;;;17.30;58.40;;;;;;4103051;28;20240;-87
2023/06/05 09:12:01;;;;;;;;;;;17.40;58.40;;;;;;4113607;28;19919;-88
2023/06/05 09:14:25;;;;;;;;;;;17.40;57.80;;;;;;4113944;28;19918;-87
2023/06/05 09:16:46;;;;;;;;;;;17.40;58.00;;;;;;4113805;28;19982;-86
2023/06/05 09:19:07;;;;;;;;;;;17.50;57.80;;;;;;4112465;28;19922;-89
2023/06/05 09:21:31;;;;;;;;;;;17.50;57.20;;;;;;4112936;28;19920;-86
2023/06/05 09:23:51;;;;;;;;;;;17.50;57.40;;;;;;4112471;28;20005;-86
2023/06/05 09:26:15;;;;;;;;;;;17.60;57.00;;;;;;4097383;28;19997;-85
2023/06/05 09:28:35;;;;;;;;;;;17.60;56.00;;;;;;4097976;28;19918;-88
2023/06/05 09:30:57;;;;;;;;;;;17.50;55.60;;;;;;4106484;28;20351;-86
2023/06/05 09:33:19;;;;;;;;;;;17.60;55.50;;;;;;4095772;28;20227;-86
2023/06/05 09:35:39;;;;;;;;;;;17.60;55.80;;;;;;4116150;28;20382;-87
2023/06/05 09:38:00;;;;;;;;;;;17.50;55.30;;;;;;4101647;28;20543;-87
2023/06/05 09:40:36;;;;;;;;;;;17.50;56.00;;;;;;4112054;28;20059;-86
2023/06/05 09:42:57;;;;;;;;;;;17.60;56.00;;;;;;4107450;28;19997;-86
2023/06/05 09:45:17;;;;;;;;;;;17.60;56.70;;;;;;4111862;28;20001;-86
2023/06/05 09:47:38;;;;;;;;;;;17.70;56.50;;;;;;4102742;28;20271;-87
2023/06/05 09:49:59;;;;;;;;;;;17.80;56.80;;;;;;4116408;28;19922;-87
2023/06/05 09:52:20;;;;;;;;;;;17.90;57.20;;;;;;4098239;28;19918;-87
2023/06/05 09:54:44;;;;;;;;;;;18.00;57.20;;;;;;4110749;28;19919;-87
2023/06/05 09:57:06;;;;;;;;;;;18.10;57.40;;;;;;4099565;28;19926;-86
2023/06/05 09:59:29;;;;;;;;;;;18.20;56.60;;;;;;4105625;28;19933;-87
2023/06/05 10:01:51;;;;;;;;;;;18.30;56.50;;;;;;4108375;28;19937;-86
2023/06/05 10:04:12;;;;;;;;;;;18.30;54.90;;;;;;4116305;28;19940;-87
2023/06/05 10:06:34;;;;;;;;;;;18.40;55.70;;;;;;4110101;28;19925;-88
2023/06/05 10:08:56;;;;;;;;;;;18.50;55.60;;;;;;4099113;28;19988;-86
2023/06/05 10:11:18;;;;;;;;;;;18.50;55.20;;;;;;4097451;28;19922;-86
2023/06/05 10:13:39;;;;;;;;;;;18.50;54.90;;;;;;4103460;28;19914;-87
2023/06/05 10:16:01;;;;;;;;;;;18.50;53.20;;;;;;4102884;28;19918;-88
2023/06/05 10:18:25;;;;;;;;;;;18.50;52.90;;;;;;4099157;28;19918;-87
2023/06/05 10:20:46;;;;;;;;;;;18.60;53.70;;;;;;4097202;28;19922;-86
2023/06/05 10:23:07;;;;;;;;;;;18.60;53.60;;;;;;4108009;28;19922;-87
2023/06/05 10:25:29;;;;;;;;;;;18.70;54.00;;;;;;4105148;28;19975;-86
2023/06/05 10:27:53;;;;;;;;;;;18.70;54.20;;;;;;4105613;28;19922;-86
2023/06/05 10:30:26;;;;;;;;;;;18.70;53.20;;;;;;4109693;28;19988;-85
2023/06/05 10:33:09;;;;;;;;;;;18.70;53.50;;;;;;4096668;28;20030;-86
2023/06/05 10:35:34;;;;;;;;;;;18.70;51.00;;;;;;4094279;28;19922;-85
2023/06/05 10:37:58;;;;;;;;;;;18.80;51.90;;;;;;4106662;28;19922;-86
2023/06/05 10:40:19;;;;;;;;;;;18.80;51.00;;;;;;4095689;28;19962;-87
2023/06/05 10:42:40;;;;;;;;;;;18.80;52.40;;;;;;4095439;28;19962;-86
2023/06/05 10:45:01;;;;;;;;;;;18.80;52.50;;;;;;4105444;28;20327;-88
2023/06/05 10:47:31;;;;;;;;;;;18.90;51.40;;;;;;4105084;28;19915;-86
2023/06/05 10:50:11;;;;;;;;;;;18.90;52.50;;;;;;4085829;28;19930;-88
2023/06/05 10:52:35;;;;;;;;;;;19.00;50.50;;;;;;4093114;28;19930;-86
2023/06/05 10:54:56;;;;;;;;;;;19.00;51.30;;;;;;4104637;28;19919;-87
2023/06/05 10:57:19;;;;;;;;;;;19.10;51.80;;;;;;4101613;28;19922;-86
2023/06/05 10:59:42;;;;;;;;;;;19.20;52.60;;;;;;4098318;28;19922;-87
2023/06/05 11:04:47;;;;;;;;;;;19.40;52.40;;;;;;4108348;28;20007;-87
2023/06/05 11:07:37;;;;;;;;;;;19.40;52.60;;;;;;4092100;28;19929;-87
2023/06/05 11:10:01;;;;;;;;;;;19.60;52.20;;;;;;4052478;29;20447;-88
2023/06/05 11:12:22;;;;;;;;;;;19.70;53.20;;;;;;4050479;29;20561;-86
2023/06/05 11:14:44;;;;;;;;;;;19.80;51.10;;;;;;4055344;29;19951;-87
2023/06/05 11:17:25;;;;;;;;;;;19.90;51.60;;;;;;4053058;29;20419;-88
2023/06/05 11:19:45;;;;;;;;;;;20.00;52.10;;;;;;4050527;29;20570;-88
2023/06/05 11:22:07;;;;;;;;;;;20.00;52.40;;;;;;4053632;29;19915;-88
2023/06/05 11:24:28;;;;;;;;;;;20.10;52.00;;;;;;4055222;29;19915;-88
2023/06/05 11:26:49;;;;;;;;;;;20.30;51.30;;;;;;4054055;29;20043;-86
2023/06/05 11:29:15;;;;;;;;;;;20.30;51.20;;;;;;4040874;29;19924;-87
2023/06/05 11:31:39;;;;;;;;;;;20.30;51.00;;;;;;4036775;29;20018;-86
2023/06/05 11:34:00;;;;;;;;;;;20.40;50.10;;;;;;4041899;29;20316;-87
2023/06/05 11:36:24;;;;;;;;;;;20.40;47.60;;;;;;4057617;29;19930;-88
2023/06/05 11:38:52;;;;;;;;;;;20.40;47.40;;;;;;4040899;29;19927;-87
2023/06/05 11:41:13;;;;;;;;;;;20.40;47.50;;;;;;4054796;29;19923;-87
2023/06/05 11:43:41;;;;;;;;;;;20.40;47.40;;;;;;4058750;29;20060;-85
2023/06/05 11:46:01;;;;;;;;;;;20.40;47.20;;;;;;4075261;28;19929;-86
2023/06/05 11:48:23;;;;;;;;;;;20.30;47.20;;;;;;4103456;28;19980;-86
2023/06/05 11:50:56;;;;;;;;;;;20.40;47.90;;;;;;4102259;28;19918;-86
2023/06/05 11:53:17;;;;;;;;;;;20.30;47.50;;;;;;4093506;28;19923;-86
2023/06/05 11:55:54;;;;;;;;;;;20.30;46.90;;;;;;4108111;28;19922;-88
2023/06/05 11:58:22;;;;;;;;;;;20.40;47.10;;;;;;4099212;28;19929;-85
2023/06/05 12:00:45;;;;;;;;;;;20.30;44.90;;;;;;4105969;28;20293;-85
2023/06/05 12:03:16;;;;;;;;;;;20.30;46.40;;;;;;4102043;28;20349;-86
2023/06/05 12:05:37;;;;;;;;;;;20.30;46.80;;;;;;4106471;28;19973;-88
2023/06/05 12:08:20;;;;;;;;;;;20.20;47.30;;;;;;4103979;28;19922;-86
2023/06/05 12:10:41;;;;;;;;;;;20.30;47.20;;;;;;4103581;28;19918;-85
2023/06/05 12:13:01;;;;;;;;;;;20.30;47.40;;;;;;4095787;28;19948;-87
2023/06/05 12:15:23;;;;;;;;;;;20.30;46.20;;;;;;4104109;28;19929;-87
2023/06/05 12:17:50;;;;;;;;;;;20.30;46.50;;;;;;4108766;28;19922;-85
2023/06/05 12:20:11;;;;;;;;;;;20.30;45.90;;;;;;4109924;28;19913;-86
2023/06/05 12:22:35;;;;;;;;;;;20.30;46.60;;;;;;4096455;28;20017;-85
2023/06/05 12:24:56;;;;;;;;;;;20.30;45.80;;;;;;4108031;28;19922;-87
2023/06/05 12:27:17;;;;;;;;;;;20.30;45.20;;;;;;4110094;28;19918;-84
2023/06/05 12:29:38;;;;;;;;;;;20.30;45.10;;;;;;4102056;28;19918;-86
2023/06/05 12:32:00;;;;;;;;;;;20.30;45.40;;;;;;4105035;28;19925;-85
2023/06/05 12:34:47;;;;;;;;;;;20.30;45.40;;;;;;4096846;28;19926;-87
2023/06/05 12:37:08;;;;;;;;;;;20.30;45.10;;;;;;4105741;28;20509;-88
2023/06/05 12:39:28;;;;;;;;;;;20.30;45.50;;;;;;4100899;28;19929;-85
2023/06/05 12:41:49;;;;;;;;;;;20.20;43.30;;;;;;4101893;28;19914;-87
2023/06/05 12:44:10;;;;;;;;;;;20.30;44.20;;;;;;4094939;28;20540;-85
2023/06/05 12:46:32;;;;;;;;;;;20.30;43.00;;;;;;4094194;28;19919;-85
2023/06/05 12:48:52;;;;;;;;;;;20.30;43.20;;;;;;4111176;28;19924;-87
2023/06/05 12:51:13;;;;;;;;;;;20.30;44.10;;;;;;4096945;28;19929;-85
2023/06/05 12:53:34;;;;;;;;;;;20.30;44.00;;;;;;4110549;28;19986;-86
2023/06/05 12:55:55;;;;;;;;;;;20.40;44.30;;;;;;4106223;28;20003;-86
2023/06/05 12:58:16;;;;;;;;;;;20.40;44.80;;;;;;4114792;28;20002;-85
2023/06/05 13:00:38;;;;;;;;;;;20.50;44.20;;;;;;4108715;28;19925;-87
2023/06/05 13:03:03;;;;;;;;;;;20.40;43.00;;;;;;4092460;28;20172;-87
2023/06/05 13:05:24;;;;;;;;;;;20.60;43.80;;;;;;4105369;28;19929;-86
2023/06/05 13:07:45;;;;;;;;;;;20.60;43.40;;;;;;4103776;28;20009;-87
2023/06/05 13:10:06;;;;;;;;;;;20.70;44.00;;;;;;4095209;28;19954;-87
2023/06/05 13:12:27;;;;;;;;;;;20.70;41.80;;;;;;4114243;28;20354;-87
2023/06/05 13:14:48;;;;;;;;;;;20.80;42.60;;;;;;4095114;28;19953;-86
2023/06/05 13:17:09;;;;;;;;;;;20.80;42.80;;;;;;4108545;28;20406;-88
2023/06/05 13:19:30;;;;;;;;;;;20.90;40.40;;;;;;4094221;28;20010;-87
2023/06/05 13:21:51;;;;;;;;;;;20.90;38.50;;;;;;4109871;28;19918;-85
2023/06/05 13:24:12;;;;;;;;;;;20.80;38.10;;;;;;4104729;28;20278;-85
2023/06/05 13:26:33;;;;;;;;;;;20.90;39.60;;;;;;4081492;28;19923;-86
2023/06/05 13:28:54;;;;;;;;;;;20.90;39.70;;;;;;4097211;28;19926;-87
2023/06/05 13:31:16;;;;;;;;;;;20.90;39.30;;;;;;4101460;28;19944;-87
2023/06/05 13:33:37;;;;;;;;;;;20.90;38.00;;;;;;4100076;28;21267;-86
2023/06/05 13:35:58;;;;;;;;;;;20.90;37.50;;;;;;4108440;28;19918;-86
2023/06/05 13:38:20;;;;;;;;;;;21.00;39.50;;;;;;4093136;28;19923;-87
2023/06/05 13:40:42;;;;;;;;;;;21.00;38.40;;;;;;4093288;28;19976;-86
2023/06/05 13:43:03;;;;;;;;;;;21.10;38.00;;;;;;4106981;28;19922;-86
2023/06/05 13:45:24;;;;;;;;;;;21.00;38.90;;;;;;4104342;28;19925;-87
2023/06/05 13:47:45;;;;;;;;;;;21.00;38.70;;;;;;4105515;28;19968;-86
2023/06/05 13:50:07;;;;;;;;;;;21.00;38.60;;;;;;4105895;28;19962;-88
2023/06/05 13:52:28;;;;;;;;;;;21.00;39.00;;;;;;4085282;28;20376;-85
2023/06/05 13:54:48;;;;;;;;;;;20.90;38.70;;;;;;4091226;28;20001;-84